Flight Briefing for CPX784

Departure Arrival
Incheon International Airport (RKSI)
Click to view FAA NOTAMS
Tan Son Nhat International Airport (VVTS)
Click to view FAA NOTAMS
Departure Time Arrival Time
N/A N/A
Aircraft Distance
B767-300BDSF 2216nm
Departure METAR Arrival METAR
RKSI 261000Z 35003KT 8000 NSC 07/03 Q1016 NOSIG VVTS 261000Z 14010KT 120V180 9999 FEW017 33/21 Q1009 NOSIG
Suggested Route
BOPTA1K BOPTA Z51 BEDES Y711 MUGUS Y742 SALMI Q11 DRAKE Q11 TACLE Q12 KABAM N892 MESOX Q15 CRA W2 PTH BAOMY1F


View recent IFR Routes data
Notes



Charts and Procedures

Charts for RKSI
No chart available
Charts for VVTS
No chart available

Windy.com Weather Map